createdAt,value
2023-11-01T00:01:17.729Z,98858.13
2023-11-01T00:03:49.405Z,98861.56
2023-11-01T00:06:53.291Z,98853.22
2023-11-01T00:09:24.333Z,98860.00
2023-11-01T00:11:52.301Z,98861.63
2023-11-01T00:14:28.466Z,98874.69
2023-11-01T00:16:55.555Z,98867.78
2023-11-01T00:19:31.406Z,98876.41
2023-11-01T00:21:58.442Z,98862.53
2023-11-01T00:24:25.376Z,98871.22
2023-11-01T00:26:52.325Z,98890.44
2023-11-01T00:29:19.720Z,98883.44
2023-11-01T00:31:47.682Z,98892.19
2023-11-01T00:34:14.611Z,98896.53
2023-11-01T00:36:41.507Z,98887.00
2023-11-01T00:39:08.623Z,98882.69
2023-11-01T00:41:43.438Z,98882.72
2023-11-01T00:44:18.417Z,98887.09
2023-11-01T00:46:45.810Z,98892.25
2023-11-01T00:49:27.991Z,98894.03
2023-11-01T00:51:55.976Z,98902.72
2023-11-01T00:54:22.871Z,98903.69
2023-11-01T00:56:56.968Z,98911.50
2023-11-01T00:59:28.104Z,98910.75
2023-11-01T01:01:55.164Z,98913.25
2023-11-01T01:04:22.207Z,98917.69
2023-11-01T01:06:49.070Z,98925.47
2023-11-01T01:09:16.105Z,98923.78
2023-11-01T01:11:45.468Z,98921.16
2023-11-01T01:14:12.379Z,98922.09
2023-11-01T01:16:39.330Z,98940.34
2023-11-01T01:19:06.539Z,98934.22
2023-11-01T01:21:33.505Z,98936.84
2023-11-01T01:24:00.631Z,98933.34
2023-11-01T01:26:27.651Z,98929.03
2023-11-01T01:28:54.753Z,98923.06
2023-11-01T01:31:21.710Z,98929.25
2023-11-01T01:33:48.679Z,98931.06
2023-11-01T01:36:15.502Z,98939.72
2023-11-01T01:38:42.438Z,98931.19
2023-11-01T01:41:09.321Z,98947.66
2023-11-01T01:43:36.368Z,98947.63
2023-11-01T01:46:15.176Z,98948.50
2023-11-01T01:48:46.868Z,98951.97
2023-11-01T01:51:14.821Z,98951.16
2023-11-01T01:53:44.706Z,98953.72
2023-11-01T01:56:12.612Z,98963.22
2023-11-01T01:58:41.730Z,98971.09
2023-11-01T04:14:57.158Z,99171.09
2023-11-01T04:17:24.146Z,99182.44
2023-11-01T04:19:51.009Z,99175.47
2023-11-01T04:22:18.005Z,99175.50
2023-11-01T04:24:45.019Z,99174.63
2023-11-01T04:27:12.004Z,99179.00
2023-11-01T04:29:39.033Z,99178.13
2023-11-01T04:32:06.056Z,99185.09
2023-11-01T04:34:33.116Z,99197.25
2023-11-01T04:37:00.741Z,99200.75
2023-11-01T04:39:27.538Z,99198.97
2023-11-01T04:41:54.517Z,99203.34
2023-11-01T04:44:21.425Z,99210.28
2023-11-01T04:46:48.226Z,99206.81
2023-11-01T04:49:15.060Z,99203.34
2023-11-01T04:51:42.051Z,99223.31
2023-11-01T04:54:09.202Z,99228.53
2023-11-01T04:56:36.109Z,99237.22
2023-11-01T04:59:03.112Z,99238.06
2023-11-01T05:01:32.830Z,99239.81
2023-11-01T05:03:59.799Z,99239.81
2023-11-01T05:06:28.071Z,99245.03
2023-11-01T05:08:55.095Z,99239.75
2023-11-01T05:11:24.164Z,99254.53
2023-11-01T05:13:51.170Z,99261.47
2023-11-01T05:16:18.360Z,99265.78
2023-11-01T05:18:45.299Z,99279.66
2023-11-01T05:21:12.194Z,99284.03
2023-11-01T05:23:39.058Z,99286.63
2023-11-01T05:26:06.266Z,99284.88
2023-11-01T05:28:33.200Z,99289.22
2023-11-01T05:31:00.145Z,99298.75
2023-11-01T05:33:27.408Z,99303.97
2023-11-01T05:35:54.377Z,99310.94
2023-11-01T05:38:21.746Z,99313.59
2023-11-01T05:40:48.593Z,99322.31
2023-11-01T05:43:15.582Z,99324.09
2023-11-01T05:45:42.407Z,99329.19
2023-11-01T05:48:10.331Z,99339.03
2023-11-01T05:50:37.999Z,99344.28
2023-11-01T05:53:10.521Z,99349.16
2023-11-01T05:55:48.977Z,99344.72
2023-11-01T05:58:25.614Z,99336.97
2023-11-01T06:00:53.861Z,99339.00
2023-11-01T06:03:21.597Z,99340.88
2023-11-01T06:05:48.637Z,99338.50
2023-11-01T06:10:43.793Z,99341.41
2023-11-01T06:13:10.750Z,99340.28
2023-11-01T06:15:38.528Z,99339.97
2023-11-01T06:18:09.090Z,99346.50
2023-11-01T06:20:37.158Z,99347.34
2023-11-01T06:23:10.758Z,99340.22
2023-11-01T06:25:40.943Z,99328.03
2023-11-01T06:28:09.949Z,99328.28
2023-11-01T06:30:37.219Z,99332.75
2023-11-01T06:33:04.581Z,99330.88
2023-11-01T06:35:31.830Z,99337.13
2023-11-01T06:37:59.018Z,99323.41
2023-11-01T06:40:26.330Z,99330.69
2023-11-01T06:42:54.849Z,99348.88
2023-11-01T06:45:22.876Z,99348.03
2023-11-01T06:47:50.019Z,99340.88
2023-11-01T06:50:16.948Z,99344.25
2023-11-01T06:52:46.236Z,99336.53
2023-11-01T06:55:14.674Z,99346.47
2023-11-01T06:57:41.848Z,99355.34
2023-11-01T07:02:46.215Z,99350.81
2023-11-01T07:05:13.202Z,99341.63
2023-11-01T07:07:40.142Z,99337.50
2023-11-01T07:10:09.434Z,99334.03
2023-11-01T07:12:37.009Z,99336.06
2023-11-01T07:15:08.978Z,99335.72
2023-11-01T07:17:36.195Z,99346.91
2023-11-01T07:20:05.440Z,99360.03
2023-11-01T07:22:32.609Z,99363.41
2023-11-01T07:25:01.040Z,99372.50
2023-11-01T07:27:28.038Z,99374.81
2023-11-01T07:29:55.128Z,99363.56
2023-11-01T07:32:24.124Z,99372.00
2023-11-01T07:34:51.183Z,99369.81
2023-11-01T07:37:18.140Z,99372.81
2023-11-01T07:39:45.077Z,99376.69
2023-11-01T07:42:11.967Z,99374.50
2023-11-01T07:44:39.596Z,99380.53
2023-11-01T07:47:06.687Z,99383.00
2023-11-01T07:49:33.893Z,99394.97
2023-11-01T07:52:01.353Z,99387.91
2023-11-01T07:54:28.410Z,99395.09
2023-11-01T07:56:55.715Z,99398.06
2023-11-01T07:59:24.318Z,99393.69
2023-11-01T08:01:51.311Z,99395.78
2023-11-01T08:04:19.148Z,99398.53
2023-11-01T08:06:49.233Z,99401.22
2023-11-01T08:09:16.571Z,99401.97
2023-11-01T08:11:43.722Z,99407.38
2023-11-01T08:14:11.660Z,99404.03
2023-11-01T08:16:39.008Z,99404.50
2023-11-01T08:19:06.017Z,99402.00
2023-11-01T08:21:33.748Z,99417.06
2023-11-01T08:24:00.849Z,99422.31
2023-11-01T08:26:27.845Z,99416.94
2023-11-01T08:28:54.901Z,99418.78
2023-11-01T08:31:22.550Z,99410.16
2023-11-01T08:33:49.786Z,99413.13
2023-11-01T08:36:16.964Z,99417.75
2023-11-01T08:38:44.143Z,99412.56
2023-11-01T08:41:15.916Z,99411.81
2023-11-01T08:43:43.982Z,99404.81
2023-11-01T08:46:12.745Z,99414.06
2023-11-01T08:48:39.725Z,99420.22
2023-11-01T08:51:09.377Z,99413.16
2023-11-01T08:53:40.204Z,99412.41
2023-11-01T08:56:09.290Z,99408.41
2023-11-01T08:58:36.627Z,99417.06
2023-11-01T09:01:03.794Z,99411.03
2023-11-01T09:03:31.039Z,99410.31
2023-11-01T09:05:58.316Z,99410.31
2023-11-01T09:08:25.772Z,99403.25
2023-11-01T09:10:54.976Z,99408.28
2023-11-01T09:13:24.172Z,99401.88
2023-11-01T09:15:51.814Z,99402.31
2023-11-01T09:18:19.096Z,99402.84
2023-11-01T09:20:46.255Z,99405.38
2023-11-01T09:23:13.644Z,99397.09
2023-11-01T09:25:40.744Z,99395.53
2023-11-01T09:28:07.841Z,99391.94
2023-11-01T09:30:37.056Z,99385.91
2023-11-01T09:33:04.189Z,99379.41
2023-11-01T09:35:31.609Z,99380.06
2023-11-01T09:37:58.697Z,99367.28
2023-11-01T09:40:25.974Z,99362.94
2023-11-01T09:42:54.752Z,99363.66
2023-11-01T09:45:21.797Z,99366.63
2023-11-01T09:47:51.473Z,99360.03
2023-11-01T09:50:19.016Z,99357.00
2023-11-01T09:52:46.116Z,99349.75
2023-11-01T09:55:16.623Z,99360.50
2023-11-01T09:57:45.065Z,99354.22
2023-11-01T10:00:13.288Z,99344.50
2023-11-01T10:02:40.673Z,99340.72
2023-11-01T10:05:08.131Z,99339.91
2023-11-01T10:07:35.153Z,99331.44
2023-11-01T10:10:05.233Z,99328.94
2023-11-01T10:12:32.760Z,99320.63
2023-11-01T10:14:59.748Z,99319.31
2023-11-01T10:17:26.934Z,99321.75
2023-11-01T10:19:53.804Z,99316.38
2023-11-01T10:22:21.428Z,99320.06
2023-11-01T10:24:48.361Z,99319.84
2023-11-01T10:27:15.233Z,99313.91
2023-11-01T10:29:44.602Z,99303.22
2023-11-01T10:32:11.845Z,99307.53
2023-11-01T10:34:38.873Z,99316.03
2023-11-01T10:37:07.153Z,99297.19
2023-11-01T10:39:37.360Z,99304.94
2023-11-01T10:42:06.160Z,99308.66
2023-11-01T10:44:33.679Z,99298.16
2023-11-01T10:47:01.731Z,99290.03
2023-11-01T10:49:29.570Z,99298.56
2023-11-01T10:51:58.205Z,99295.69
2023-11-01T10:54:30.784Z,99293.44
2023-11-01T10:56:59.637Z,99287.28
2023-11-01T10:59:44.691Z,99295.09
2023-11-01T11:02:20.168Z,99289.38
2023-11-01T11:05:06.981Z,99279.97
2023-11-01T11:07:51.823Z,99280.66
2023-11-01T11:10:25.345Z,99275.16
2023-11-01T11:13:10.602Z,99278.06
2023-11-01T11:15:53.050Z,99274.78
2023-11-01T11:18:49.780Z,99267.84
2023-11-01T11:22:03.418Z,99272.94
2023-11-01T11:24:42.854Z,99273.59
2023-11-01T11:27:50.008Z,99276.28
2023-11-01T11:30:17.197Z,99259.81
2023-11-01T11:32:44.206Z,99251.13
2023-11-01T11:35:22.042Z,99257.56
2023-11-01T11:37:49.065Z,99250.03
2023-11-01T11:40:16.294Z,99253.72
2023-11-01T11:42:43.094Z,99260.78
2023-11-01T11:45:10.113Z,99259.22
2023-11-01T11:47:37.210Z,99255.78
2023-11-01T11:50:11.049Z,99250.19
2023-11-01T11:52:50.642Z,99240.53
2023-11-01T11:55:17.539Z,99247.09
2023-11-01T11:57:44.519Z,99246.97
2023-11-01T12:04:34.757Z,99237.19
2023-11-01T12:07:02.584Z,99233.38
2023-11-01T12:09:30.810Z,99225.56
2023-11-01T12:11:59.838Z,99229.25
2023-11-01T12:14:29.109Z,99225.53
2023-11-01T12:16:59.948Z,99230.50
2023-11-01T12:19:27.666Z,99220.69
2023-11-01T12:21:59.833Z,99225.16
2023-11-01T12:24:40.367Z,99214.81
2023-11-01T12:27:08.295Z,99206.56
2023-11-01T12:29:42.039Z,99208.72
2023-11-01T12:32:29.737Z,99221.75
2023-11-01T12:34:56.570Z,99211.97
2023-11-01T12:37:25.541Z,99207.47
2023-11-01T12:40:14.259Z,99184.78
2023-11-01T12:42:50.887Z,99197.91
2023-11-01T12:45:20.103Z,99199.75
2023-11-01T12:47:48.219Z,99199.72
2023-11-01T12:50:23.433Z,99194.16
2023-11-01T12:52:50.484Z,99190.78
2023-11-01T12:55:18.274Z,99192.59
2023-11-01T12:57:56.941Z,99190.72
2023-11-01T13:00:24.858Z,99188.00
2023-11-01T13:02:52.904Z,99181.13
2023-11-01T13:05:20.166Z,99173.25
2023-11-01T13:07:47.266Z,99170.97
2023-11-01T13:10:16.637Z,99168.84
2023-11-01T13:12:48.534Z,99187.19
2023-11-01T13:15:17.163Z,99180.69
2023-11-01T13:17:44.881Z,99176.34
2023-11-01T13:20:12.046Z,99180.81
2023-11-01T13:22:38.970Z,99174.44
2023-11-01T13:25:06.421Z,99171.13
2023-11-01T13:27:33.259Z,99172.38
2023-11-01T13:30:00.293Z,99175.31
2023-11-01T13:32:27.360Z,99174.50
2023-11-01T13:34:56.098Z,99159.63
2023-11-01T13:37:23.041Z,99154.34
2023-11-01T13:39:49.902Z,99160.06
2023-11-01T13:42:17.233Z,99161.22
2023-11-01T13:44:45.244Z,99154.03
2023-11-01T13:47:12.441Z,99147.28
2023-11-01T13:49:41.328Z,99146.81
2023-11-01T13:52:09.186Z,99142.16
2023-11-01T13:54:36.076Z,99147.09
2023-11-01T13:57:04.701Z,99138.84
2023-11-01T13:59:32.356Z,99146.38
2023-11-01T14:04:35.122Z,99117.78
2023-11-01T14:07:02.264Z,99124.06
2023-11-01T14:09:29.396Z,99115.34
2023-11-01T14:11:56.401Z,99132.94
2023-11-01T14:14:24.802Z,99132.16
2023-11-01T14:16:52.557Z,99132.97
2023-11-01T14:19:19.922Z,99135.06
2023-11-01T14:21:46.967Z,99131.72
2023-11-01T14:24:17.223Z,99137.94
2023-11-01T14:26:46.476Z,99142.44
2023-11-01T14:29:13.506Z,99142.56
2023-11-01T14:31:40.892Z,99133.75
2023-11-01T14:34:08.604Z,99128.59
2023-11-01T14:36:35.652Z,99126.34
2023-11-01T14:39:02.531Z,99116.91
2023-11-01T14:41:30.125Z,99120.38
2023-11-01T14:43:59.335Z,99122.25
2023-11-01T14:46:27.866Z,99117.19
2023-11-01T14:48:55.133Z,99105.91
2023-11-01T14:51:22.136Z,99115.59
2023-11-01T14:53:49.872Z,99118.50
2023-11-01T14:56:18.779Z,99113.34
2023-11-01T14:58:48.622Z,99114.16
2023-11-01T15:01:16.293Z,99111.91
2023-11-01T15:03:47.210Z,99115.56
2023-11-01T15:06:14.637Z,99115.69
2023-11-01T15:08:42.077Z,99126.28
2023-11-01T15:11:11.506Z,99119.44
2023-11-01T15:13:38.609Z,99111.69
2023-11-01T15:16:06.100Z,99118.75
2023-11-01T15:18:33.159Z,99116.28
2023-11-01T15:21:04.149Z,99120.06
2023-11-01T15:23:33.750Z,99125.34
2023-11-01T15:26:02.016Z,99114.91
2023-11-01T15:28:29.169Z,99114.94
2023-11-01T15:30:56.240Z,99110.47
2023-11-01T15:33:23.377Z,99115.81
2023-11-01T15:35:50.280Z,99113.16
2023-11-01T15:38:17.769Z,99117.56
2023-11-01T15:40:44.790Z,99118.56
2023-11-01T15:43:11.703Z,99110.84
2023-11-01T15:45:38.706Z,99112.59
2023-11-01T15:48:06.860Z,99106.66
2023-11-01T15:50:37.320Z,99113.56
2023-11-01T15:53:04.845Z,99107.44
2023-11-01T15:55:31.705Z,99098.81
2023-11-01T15:57:58.536Z,99094.66
2023-11-01T16:00:25.674Z,99097.31
2023-11-01T16:02:52.602Z,99091.25
2023-11-01T16:05:20.005Z,99106.81
2023-11-01T16:07:47.432Z,99104.41
2023-11-01T16:10:14.612Z,99105.25
2023-11-01T16:12:41.647Z,99106.94
2023-11-01T16:15:09.186Z,99100.84
2023-11-01T16:17:36.133Z,99093.03
2023-11-01T16:20:03.555Z,99093.97
2023-11-01T16:22:30.967Z,99094.09
2023-11-01T16:24:57.912Z,99085.53
2023-11-01T16:27:24.812Z,99086.47
2023-11-01T16:29:51.875Z,99079.69
2023-11-01T16:32:19.131Z,99078.84
2023-11-01T16:34:46.843Z,99071.09
2023-11-01T16:37:14.647Z,99072.88
2023-11-01T16:39:41.708Z,99069.44
2023-11-01T16:42:09.358Z,99066.91
2023-11-01T16:44:36.430Z,99067.88
2023-11-01T16:47:03.502Z,99054.84
2023-11-01T16:49:30.409Z,99057.53
2023-11-01T16:51:57.328Z,99057.59
2023-11-01T16:54:24.242Z,99041.97
2023-11-01T16:56:51.244Z,99047.25
2023-11-01T16:59:23.158Z,99033.34
2023-11-01T17:01:50.234Z,99034.22
2023-11-01T17:04:17.291Z,99034.19
2023-11-01T17:06:44.935Z,99025.56
2023-11-01T17:09:11.903Z,99016.09
2023-11-01T17:11:38.885Z,99027.38
2023-11-01T17:14:06.367Z,99024.75
2023-11-01T17:16:33.220Z,99022.22
2023-11-01T17:19:00.210Z,99016.19
2023-11-01T17:21:30.846Z,99022.28
2023-11-01T17:23:58.179Z,99021.44
2023-11-01T17:26:29.294Z,99024.06
2023-11-01T17:28:58.332Z,99025.81
2023-11-01T17:31:43.349Z,99032.81
2023-11-01T17:34:12.060Z,99031.06
2023-11-01T17:36:39.811Z,99033.69
2023-11-01T17:39:09.515Z,99031.91
2023-11-01T17:41:45.387Z,99032.03
2023-11-01T17:44:12.363Z,99024.16
2023-11-01T17:46:50.789Z,99025.84
2023-11-01T17:49:57.345Z,99036.28
2023-11-01T17:52:32.043Z,99024.13
2023-11-01T17:55:00.455Z,99010.25
2023-11-01T17:57:27.452Z,99008.53
2023-11-01T17:59:56.218Z,99017.28
2023-11-01T18:02:32.391Z,99015.50
2023-11-01T18:05:01.264Z,99011.16
2023-11-01T18:07:28.313Z,99009.41
2023-11-01T18:09:58.288Z,99011.97
2023-11-01T18:12:25.494Z,99002.38
2023-11-01T18:14:55.189Z,99000.59
2023-11-01T18:17:23.238Z,99003.25
2023-11-01T18:19:50.390Z,99002.41
2023-11-01T18:22:41.528Z,99003.25
2023-11-01T18:25:30.875Z,99005.06
2023-11-01T18:28:01.762Z,99000.75
2023-11-01T18:30:28.848Z,99004.28
2023-11-01T18:32:55.738Z,99004.28
2023-11-01T18:35:29.942Z,98992.94
2023-11-01T18:37:56.781Z,98994.69
2023-11-01T18:40:25.302Z,98987.75
2023-11-01T18:42:58.701Z,98986.03
2023-11-01T18:45:25.671Z,98984.34
2023-11-01T18:47:58.408Z,98981.72
2023-11-01T18:50:25.439Z,98969.63
2023-11-01T18:52:52.368Z,98979.19
2023-11-01T18:55:34.344Z,98967.09
2023-11-01T18:58:01.291Z,98979.25
2023-11-01T19:00:28.975Z,98981.03
2023-11-01T19:03:04.581Z,98983.63
2023-11-01T19:05:33.793Z,98978.41
2023-11-01T19:08:01.663Z,98984.50
2023-11-01T19:10:34.775Z,98980.16
2023-11-01T19:13:02.986Z,98971.50
2023-11-01T19:16:17.808Z,98974.94
2023-11-01T19:18:49.393Z,98972.34
2023-11-01T19:21:16.428Z,98970.59
2023-11-01T19:23:45.508Z,98975.81
2023-11-01T19:26:12.491Z,98972.38
2023-11-01T19:28:39.368Z,98976.69
2023-11-01T19:31:06.352Z,98981.94
2023-11-01T19:33:34.232Z,98976.72
2023-11-01T19:36:10.775Z,98985.41
2023-11-01T19:38:43.339Z,98978.44
2023-11-01T19:41:10.398Z,98974.09
2023-11-01T19:43:37.605Z,98967.16
2023-11-01T19:46:04.978Z,98970.59
2023-11-01T19:48:31.955Z,98956.69
2023-11-01T19:51:00.185Z,98959.34
2023-11-01T19:53:27.668Z,98955.88
2023-11-01T19:55:56.102Z,98949.78
2023-11-01T19:58:22.974Z,98943.72
2023-11-01T20:04:35.749Z,98947.25
2023-11-01T20:07:03.284Z,98940.31
2023-11-01T20:09:30.160Z,98938.56
2023-11-01T20:11:57.335Z,98944.63
2023-11-01T20:14:24.230Z,98938.53
2023-11-01T20:16:51.271Z,98929.00
2023-11-01T20:19:19.541Z,98928.09
2023-11-01T20:21:46.492Z,98928.13
2023-11-01T20:24:14.211Z,98935.91
2023-11-01T20:26:41.901Z,98938.50
2023-11-01T20:29:09.019Z,98930.72
2023-11-01T20:31:36.632Z,98923.75
2023-11-01T20:34:03.608Z,98916.81
2023-11-01T20:36:30.754Z,98898.56
2023-11-01T20:38:57.826Z,98902.91
2023-11-01T20:41:24.783Z,98899.47
2023-11-01T20:43:51.869Z,98889.94
2023-11-01T20:46:18.697Z,98894.28
2023-11-01T20:48:46.076Z,98891.66
2023-11-01T20:51:15.331Z,98884.69
2023-11-01T20:53:43.236Z,98879.50
2023-11-01T20:56:10.894Z,98876.06
2023-11-01T20:58:37.761Z,98876.97
2023-11-01T21:04:06.758Z,98866.56
2023-11-01T21:06:34.065Z,98860.50
2023-11-01T21:09:00.934Z,98850.91
2023-11-01T21:11:27.859Z,98857.84
2023-11-01T21:13:54.791Z,98857.84
2023-11-01T21:16:21.729Z,98852.66
2023-11-01T21:18:48.652Z,98848.28
2023-11-01T21:21:15.602Z,98835.25
2023-11-01T21:23:42.889Z,98840.44
2023-11-01T21:26:10.589Z,98834.44
2023-11-01T21:28:40.661Z,98839.63
2023-11-01T21:31:11.078Z,98821.44
2023-11-01T21:33:40.860Z,98808.41
2023-11-01T21:36:08.198Z,98811.81
2023-11-01T21:38:35.126Z,98825.72
2023-11-01T21:41:02.159Z,98837.00
2023-11-01T21:43:29.076Z,98846.53
2023-11-01T21:45:56.105Z,98840.44
2023-11-01T21:48:25.348Z,98840.44
2023-11-01T21:51:03.602Z,98850.78
2023-11-01T21:53:32.048Z,98854.28
2023-11-01T21:56:00.606Z,98835.13
2023-11-01T21:58:28.983Z,98836.88
2023-11-01T22:01:00.338Z,98825.69
2023-11-01T22:03:43.071Z,98829.09
2023-11-01T22:06:11.718Z,98808.31
2023-11-01T22:08:44.720Z,98817.94
2023-11-01T22:11:13.590Z,98811.84
2023-11-01T22:13:40.486Z,98808.41
2023-11-01T22:16:07.879Z,98799.81
2023-11-01T22:18:34.862Z,98811.03
2023-11-01T22:21:01.967Z,98786.72
2023-11-01T22:23:28.833Z,98801.47
2023-11-01T22:25:57.025Z,98805.75
2023-11-01T22:28:28.587Z,98792.72
2023-11-01T22:30:55.457Z,98782.34
2023-11-01T22:33:22.732Z,98780.59
2023-11-01T22:35:50.192Z,98783.19
2023-11-01T22:38:17.989Z,98779.69
2023-11-01T22:40:48.487Z,98777.09
2023-11-01T22:43:25.097Z,98772.75
2023-11-01T22:45:53.164Z,98774.47
2023-11-01T22:48:20.168Z,98771.88
2023-11-01T22:50:47.297Z,98759.72
2023-11-01T22:53:14.285Z,98766.66
2023-11-01T22:55:42.729Z,98764.06
2023-11-01T22:58:11.041Z,98766.63
2023-11-01T23:00:38.295Z,98765.72
2023-11-01T23:03:06.691Z,98757.88
2023-11-01T23:05:35.815Z,98750.06
2023-11-01T23:08:03.238Z,98739.66
2023-11-01T23:10:32.529Z,98732.69
2023-11-01T23:13:01.732Z,98729.19
2023-11-01T23:15:29.278Z,98739.56
2023-11-01T23:17:58.282Z,98754.34
2023-11-01T23:20:25.413Z,98754.41
2023-11-01T23:22:53.973Z,98748.31
2023-11-01T23:25:31.271Z,98742.25
2023-11-01T23:28:30.871Z,98745.72
2023-11-01T23:30:58.516Z,98742.22
2023-11-01T23:33:39.491Z,98746.47
2023-11-01T23:36:14.059Z,98736.13
2023-11-01T23:38:48.381Z,98737.78
2023-11-01T23:41:26.202Z,98744.72
2023-11-01T23:44:05.476Z,98736.94
2023-11-01T23:46:32.880Z,98736.91
2023-11-01T23:49:03.707Z,98736.09
2023-11-01T23:51:39.507Z,98735.22
2023-11-01T23:54:07.586Z,98732.63
2023-11-01T23:56:41.153Z,98726.53
2023-11-01T23:59:08.935Z,98727.50
